createdAt,value
2023-05-31T00:02:32.425Z,2.37
2023-05-31T00:05:33.966Z,2.00
2023-05-31T00:08:35.411Z,2.17
2023-05-31T00:11:36.871Z,2.00
2023-05-31T00:14:38.333Z,2.03
2023-05-31T00:20:44.263Z,1.83
2023-05-31T00:23:45.694Z,1.93
2023-05-31T00:26:47.161Z,2.67
2023-05-31T00:29:48.581Z,1.80
2023-05-31T00:32:50.287Z,2.30
2023-05-31T00:35:51.739Z,2.17
2023-05-31T00:38:53.182Z,2.13
2023-05-31T00:41:54.722Z,2.10
2023-05-31T00:44:56.185Z,2.07
2023-05-31T00:47:58.272Z,2.00
2023-05-31T00:51:00.486Z,2.00
2023-05-31T00:54:03.069Z,1.70
2023-05-31T00:57:05.144Z,2.00
2023-05-31T01:00:08.987Z,2.20
2023-05-31T01:03:10.528Z,2.30
2023-05-31T01:06:12.182Z,2.03
2023-05-31T01:09:14.066Z,1.97
2023-05-31T01:12:44.595Z,2.10
2023-05-31T01:16:12.125Z,2.00
2023-05-31T01:19:26.116Z,2.00
2023-05-31T01:22:51.453Z,2.33
2023-05-31T01:26:08.694Z,1.70
2023-05-31T01:29:17.911Z,2.33
2023-05-31T01:32:22.380Z,1.83
2023-05-31T01:35:23.867Z,2.07
2023-05-31T01:38:26.358Z,1.93
2023-05-31T01:41:31.980Z,2.00
2023-05-31T01:44:34.184Z,2.23
2023-05-31T01:47:36.294Z,1.97
2023-05-31T01:50:37.941Z,2.10
2023-05-31T01:53:39.628Z,1.93
2023-05-31T01:56:42.747Z,2.00
2023-05-31T01:59:45.587Z,1.70
2023-05-31T02:02:47.927Z,2.60
2023-05-31T02:05:59.771Z,1.77
2023-05-31T02:09:01.349Z,1.67
2023-05-31T02:12:03.372Z,2.00
2023-05-31T02:15:14.365Z,1.80
2023-05-31T02:18:18.071Z,2.03
2023-05-31T02:21:20.887Z,1.90
2023-05-31T02:24:22.334Z,2.10
2023-05-31T02:27:23.758Z,1.70
2023-05-31T02:30:32.867Z,2.00
2023-05-31T02:33:34.286Z,1.83
2023-05-31T02:36:36.121Z,1.80
2023-05-31T02:39:37.567Z,1.97
2023-05-31T02:42:41.389Z,1.77
2023-05-31T02:45:43.322Z,2.00
2023-05-31T02:48:45.591Z,2.10
2023-05-31T02:51:47.185Z,2.23
2023-05-31T02:54:48.662Z,1.80
2023-05-31T02:57:55.705Z,2.00
2023-05-31T03:00:57.561Z,2.00
2023-05-31T03:04:00.994Z,2.10
2023-05-31T03:07:07.603Z,2.03
2023-05-31T03:10:11.474Z,2.00
2023-05-31T03:13:13.219Z,1.90
2023-05-31T03:16:14.714Z,1.97
2023-05-31T03:19:16.264Z,2.00
2023-05-31T03:22:21.791Z,2.10
2023-05-31T03:25:23.258Z,2.00
2023-05-31T03:28:24.771Z,1.93
2023-05-31T03:31:30.078Z,2.03
2023-05-31T03:34:33.987Z,2.20
2023-05-31T03:37:36.079Z,1.90
2023-05-31T03:40:42.282Z,2.00
2023-05-31T03:43:43.847Z,2.20
2023-05-31T03:46:45.382Z,2.00
2023-05-31T03:49:46.845Z,2.00
2023-05-31T03:52:48.283Z,1.80
2023-05-31T03:55:49.721Z,2.20
2023-05-31T03:58:51.412Z,1.90
2023-05-31T04:01:54.512Z,2.17
2023-05-31T04:04:56.153Z,1.87
2023-05-31T04:08:02.766Z,2.03
2023-05-31T04:11:07.013Z,1.87
2023-05-31T04:14:08.477Z,1.93
2023-05-31T04:17:10.061Z,1.70
2023-05-31T04:20:14.066Z,1.97
2023-05-31T04:23:15.989Z,2.07
2023-05-31T04:26:18.799Z,1.83
2023-05-31T04:29:22.581Z,2.17
2023-05-31T04:32:26.064Z,2.00
2023-05-31T04:35:30.022Z,2.20
2023-05-31T04:38:33.374Z,1.90
2023-05-31T04:41:35.099Z,2.20
2023-05-31T04:44:37.400Z,2.00
2023-05-31T04:47:38.970Z,2.00
2023-05-31T04:50:41.470Z,1.87
2023-05-31T04:53:42.997Z,1.87
2023-05-31T04:56:44.484Z,1.80
2023-05-31T04:59:45.971Z,1.80
2023-05-31T05:02:47.563Z,1.87
2023-05-31T05:05:51.621Z,1.90
2023-05-31T05:08:53.377Z,2.10
2023-05-31T05:11:56.867Z,1.97
2023-05-31T05:14:58.349Z,2.23
2023-05-31T05:18:01.060Z,1.80
2023-05-31T05:21:02.788Z,1.80
2023-05-31T05:24:07.167Z,2.83
2023-05-31T05:27:09.953Z,2.40
2023-05-31T05:30:14.122Z,1.90
2023-05-31T05:33:16.125Z,2.37
2023-05-31T05:36:17.934Z,2.20
2023-05-31T05:39:25.311Z,2.20
2023-05-31T05:42:28.656Z,2.10
2023-05-31T05:45:30.215Z,2.43
2023-05-31T05:48:32.885Z,2.00
2023-05-31T05:51:34.402Z,2.43
2023-05-31T05:54:41.686Z,2.30
2023-05-31T05:57:46.025Z,2.47
2023-05-31T06:01:01.262Z,2.30
2023-05-31T06:04:03.045Z,2.13
2023-05-31T06:07:04.654Z,2.10
2023-05-31T06:10:06.868Z,1.97
2023-05-31T06:13:08.337Z,2.27
2023-05-31T06:16:09.982Z,2.50
2023-05-31T06:19:11.624Z,2.00
2023-05-31T06:22:13.239Z,2.30
2023-05-31T06:25:14.817Z,2.53
2023-05-31T06:28:16.566Z,2.27
2023-05-31T06:31:19.040Z,2.40
2023-05-31T06:34:20.717Z,2.53
2023-05-31T06:37:25.105Z,2.33
2023-05-31T06:40:26.938Z,2.20
2023-05-31T06:43:28.371Z,2.03
2023-05-31T06:46:52.007Z,2.20
2023-05-31T06:50:31.365Z,2.50
2023-05-31T06:53:51.335Z,2.20
2023-05-31T06:56:58.895Z,2.13
2023-05-31T07:00:00.701Z,2.03
2023-05-31T07:03:02.436Z,2.20
2023-05-31T07:06:04.289Z,2.57
2023-05-31T07:09:06.559Z,2.20
2023-05-31T07:12:11.541Z,2.43
2023-05-31T07:15:13.008Z,2.47
2023-05-31T07:18:14.538Z,2.47
2023-05-31T07:21:16.865Z,2.50
2023-05-31T07:24:18.325Z,2.40
2023-05-31T07:27:20.675Z,2.30
2023-05-31T07:30:22.171Z,2.47
2023-05-31T07:33:28.986Z,2.20
2023-05-31T07:36:31.996Z,2.87
2023-05-31T07:39:33.414Z,2.40
2023-05-31T07:42:35.541Z,2.30
2023-05-31T07:45:37.070Z,2.40
2023-05-31T07:48:38.598Z,2.50
2023-05-31T07:51:40.661Z,2.63
2023-05-31T07:54:42.070Z,2.10
2023-05-31T07:57:43.539Z,2.20
2023-05-31T08:00:45.338Z,2.73
2023-05-31T08:03:47.220Z,2.50
2023-05-31T08:06:48.706Z,2.57
2023-05-31T08:09:50.165Z,2.10
2023-05-31T08:12:51.643Z,2.07
2023-05-31T08:15:53.353Z,2.30
2023-05-31T08:18:55.011Z,2.40
2023-05-31T08:21:57.072Z,2.33
2023-05-31T08:25:01.350Z,2.20
2023-05-31T08:28:05.166Z,2.33
2023-05-31T08:31:09.721Z,2.50
2023-05-31T08:34:13.303Z,2.40
2023-05-31T08:37:14.998Z,2.20
2023-05-31T08:40:16.548Z,2.13
2023-05-31T08:43:22.267Z,2.10
2023-05-31T08:46:24.037Z,2.60
2023-05-31T08:49:26.238Z,2.10
2023-05-31T08:52:29.172Z,2.17
2023-05-31T08:55:31.032Z,2.20
2023-05-31T08:58:33.216Z,1.97
2023-05-31T09:01:36.339Z,2.30
2023-05-31T09:04:40.590Z,2.30
2023-05-31T09:07:42.256Z,2.13
2023-05-31T09:10:43.712Z,2.10
2023-05-31T09:13:45.169Z,2.27
2023-05-31T09:16:51.151Z,2.27
2023-05-31T09:19:55.036Z,2.50
2023-05-31T09:22:56.558Z,2.30
2023-05-31T09:26:00.890Z,2.30
2023-05-31T09:29:02.341Z,2.07
2023-05-31T09:32:11.081Z,2.25
2023-05-31T09:35:18.041Z,2.60
2023-05-31T09:38:19.516Z,2.20
2023-05-31T09:41:22.234Z,2.20
2023-05-31T09:44:29.098Z,2.22
2023-05-31T09:47:31.033Z,2.57
2023-05-31T09:50:32.603Z,2.38
2023-05-31T09:53:41.888Z,2.33
2023-05-31T09:56:44.806Z,2.25
2023-05-31T09:59:47.633Z,2.38
2023-05-31T10:02:52.236Z,2.13
2023-05-31T10:05:53.796Z,2.60
2023-05-31T10:08:55.457Z,2.45
2023-05-31T10:12:03.341Z,2.00
2023-05-31T10:15:10.046Z,2.55
2023-05-31T10:18:17.297Z,2.47
2023-05-31T10:21:25.818Z,2.42
2023-05-31T10:24:34.117Z,2.25
2023-05-31T10:27:39.361Z,2.10
2023-05-31T10:30:42.519Z,2.20
2023-05-31T10:33:50.056Z,2.08
2023-05-31T10:36:52.839Z,2.10
2023-05-31T10:40:07.441Z,2.35
2023-05-31T10:43:35.687Z,2.42
2023-05-31T10:46:41.217Z,2.25
2023-05-31T10:49:44.502Z,2.20
2023-05-31T10:52:49.142Z,2.45
2023-05-31T10:55:50.802Z,2.28
2023-05-31T10:58:56.882Z,2.35
2023-05-31T11:02:00.843Z,2.40
2023-05-31T11:05:21.754Z,2.33
2023-05-31T11:08:23.924Z,2.40
2023-05-31T11:11:26.206Z,2.63
2023-05-31T11:14:32.163Z,2.00
2023-05-31T11:17:51.070Z,2.25
2023-05-31T11:20:52.631Z,2.25
2023-05-31T11:23:55.788Z,2.40
2023-05-31T11:27:05.418Z,2.53
2023-05-31T11:30:35.841Z,2.08
2023-05-31T11:33:57.524Z,2.20
2023-05-31T11:37:03.557Z,2.33
2023-05-31T11:40:13.459Z,2.20
2023-05-31T11:43:19.803Z,1.98
2023-05-31T11:46:21.394Z,2.20
2023-05-31T11:49:23.157Z,1.90
2023-05-31T11:52:24.795Z,1.85
2023-05-31T11:55:36.538Z,2.25
2023-05-31T11:58:38.001Z,2.15
2023-05-31T12:01:41.080Z,2.10
2023-05-31T12:04:43.815Z,2.15
2023-05-31T12:07:46.549Z,2.15
2023-05-31T12:10:48.173Z,2.17
2023-05-31T12:13:50.036Z,2.00
2023-05-31T12:16:52.211Z,2.30
2023-05-31T12:19:53.644Z,2.38
2023-05-31T12:23:13.158Z,1.98
2023-05-31T12:26:15.699Z,2.13
2023-05-31T12:29:18.464Z,2.10
2023-05-31T12:32:20.481Z,2.20
2023-05-31T12:35:22.016Z,2.30
2023-05-31T12:38:29.920Z,1.92
2023-05-31T12:41:31.523Z,2.30
2023-05-31T12:44:34.230Z,2.00
2023-05-31T12:47:37.074Z,2.13
2023-05-31T12:50:46.141Z,2.10
2023-05-31T12:53:47.688Z,2.00
2023-05-31T12:56:49.151Z,2.13
2023-05-31T12:59:58.737Z,2.22
2023-05-31T13:03:00.497Z,2.40
2023-05-31T13:06:02.921Z,2.30
2023-05-31T13:09:05.645Z,2.40
2023-05-31T13:12:07.854Z,2.28
2023-05-31T13:15:09.842Z,2.22
2023-05-31T13:18:11.351Z,2.20
2023-05-31T13:21:13.027Z,2.00
2023-05-31T13:24:14.978Z,2.00
2023-05-31T13:27:16.612Z,2.17
2023-05-31T13:30:18.136Z,2.40
2023-05-31T13:33:19.842Z,2.10
2023-05-31T13:36:23.733Z,2.50
2023-05-31T13:39:25.206Z,2.38
2023-05-31T13:42:27.199Z,1.92
2023-05-31T13:45:28.624Z,1.90
2023-05-31T13:48:30.205Z,2.33
2023-05-31T13:51:31.952Z,2.28
2023-05-31T13:54:33.374Z,2.10
2023-05-31T13:57:34.834Z,2.17
2023-05-31T14:00:40.036Z,2.33
2023-05-31T14:03:44.514Z,2.00
2023-05-31T14:06:46.993Z,2.05
2023-05-31T14:09:48.409Z,2.15
2023-05-31T14:12:50.090Z,2.10
2023-05-31T14:15:52.680Z,2.08
2023-05-31T14:18:55.721Z,2.13
2023-05-31T14:21:57.608Z,1.98
2023-05-31T14:24:59.265Z,1.98
2023-05-31T14:28:00.838Z,2.50
2023-05-31T14:31:03.393Z,2.50
2023-05-31T14:34:05.456Z,2.28
2023-05-31T14:37:14.911Z,2.10
2023-05-31T14:40:17.386Z,2.28
2023-05-31T14:43:18.851Z,2.35
2023-05-31T14:46:20.431Z,2.22
2023-05-31T14:49:22.194Z,2.15
2023-05-31T14:52:23.843Z,2.08
2023-05-31T14:55:25.270Z,2.17
2023-05-31T14:58:28.274Z,2.20
2023-05-31T15:01:29.980Z,2.15
2023-05-31T15:04:31.464Z,2.05
2023-05-31T15:07:32.916Z,2.83
2023-05-31T15:10:34.389Z,2.05
2023-05-31T15:13:35.825Z,2.50
2023-05-31T15:16:37.399Z,2.25
2023-05-31T15:19:39.476Z,2.20
2023-05-31T15:22:40.970Z,2.13
2023-05-31T15:25:42.638Z,2.30
2023-05-31T15:28:44.061Z,2.28
2023-05-31T15:31:45.575Z,2.15
2023-05-31T15:34:47.022Z,2.47
2023-05-31T15:37:48.574Z,2.30
2023-05-31T15:40:50.393Z,2.20
2023-05-31T15:43:51.940Z,2.00
2023-05-31T15:46:53.576Z,2.30
2023-05-31T15:49:55.664Z,2.30
2023-05-31T15:52:57.102Z,2.25
2023-05-31T15:55:58.654Z,2.22
2023-05-31T15:59:00.303Z,2.20
2023-05-31T16:02:02.115Z,2.10
2023-05-31T16:05:04.201Z,2.47
2023-05-31T16:08:06.426Z,2.25
2023-05-31T16:11:07.873Z,2.42
2023-05-31T16:14:10.340Z,2.17
2023-05-31T16:17:11.799Z,2.55
2023-05-31T16:20:13.695Z,2.80
2023-05-31T16:23:15.175Z,2.30
2023-05-31T16:26:16.962Z,2.10
2023-05-31T16:29:18.550Z,2.42
2023-05-31T16:32:20.003Z,2.25
2023-05-31T16:35:21.546Z,2.58
2023-05-31T16:38:23.052Z,2.33
2023-05-31T16:41:24.453Z,2.30
2023-05-31T16:44:26.003Z,2.40
2023-05-31T16:47:27.469Z,2.10
2023-05-31T16:50:28.954Z,2.45
2023-05-31T16:53:30.700Z,2.30
2023-05-31T16:56:32.221Z,2.10
2023-05-31T16:59:33.744Z,2.05
2023-05-31T17:02:35.221Z,2.00
2023-05-31T17:05:36.757Z,2.45
2023-05-31T17:08:38.253Z,1.92
2023-05-31T17:11:39.968Z,2.33
2023-05-31T17:14:41.426Z,2.78
2023-05-31T17:17:43.396Z,2.30
2023-05-31T17:20:44.918Z,2.65
2023-05-31T17:23:46.406Z,2.00
2023-05-31T17:26:48.331Z,2.70
2023-05-31T17:29:49.818Z,2.47
2023-05-31T17:32:51.666Z,2.65
2023-05-31T17:35:55.311Z,2.28
2023-05-31T17:38:57.746Z,2.28
2023-05-31T17:41:59.231Z,2.67
2023-05-31T17:45:00.657Z,2.40
2023-05-31T17:48:02.696Z,2.70
2023-05-31T17:51:04.233Z,2.42
2023-05-31T17:54:05.931Z,2.10
2023-05-31T17:57:08.203Z,2.10
2023-05-31T18:00:10.317Z,2.22
2023-05-31T18:03:13.377Z,2.28
2023-05-31T18:06:14.973Z,2.20
2023-05-31T18:09:16.643Z,2.15
2023-05-31T18:12:18.150Z,2.13
2023-05-31T18:15:19.618Z,2.17
2023-05-31T18:18:21.297Z,2.10
2023-05-31T18:21:22.925Z,2.15
2023-05-31T18:24:24.368Z,2.30
2023-05-31T18:27:25.788Z,2.10
2023-05-31T18:30:30.155Z,2.45
2023-05-31T18:33:31.607Z,2.15
2023-05-31T18:36:33.107Z,2.13
2023-05-31T18:39:34.909Z,2.35
2023-05-31T18:42:37.060Z,2.33
2023-05-31T18:45:38.658Z,2.33
2023-05-31T18:48:40.144Z,2.20
2023-05-31T18:51:41.718Z,2.10
2023-05-31T18:54:43.367Z,2.42
2023-05-31T18:57:44.948Z,2.08
2023-05-31T19:00:47.174Z,2.35
2023-05-31T19:03:49.561Z,2.60
2023-05-31T19:06:51.890Z,2.30
2023-05-31T19:09:53.373Z,2.08
2023-05-31T19:12:54.822Z,2.30
2023-05-31T19:15:56.798Z,2.33
2023-05-31T19:18:58.453Z,2.17
2023-05-31T19:22:00.798Z,2.20
2023-05-31T19:25:02.703Z,2.40
2023-05-31T19:28:04.159Z,2.47
2023-05-31T19:31:05.645Z,2.58
2023-05-31T19:34:07.166Z,2.28
2023-05-31T19:37:08.636Z,2.28
2023-05-31T19:40:10.708Z,2.13
2023-05-31T19:43:12.282Z,2.00
2023-05-31T19:46:24.071Z,2.25
2023-05-31T19:49:26.516Z,2.13
2023-05-31T19:52:27.976Z,2.47
2023-05-31T19:55:30.195Z,2.50
2023-05-31T19:58:32.144Z,3.00
2023-05-31T20:01:33.621Z,2.70
2023-05-31T20:04:35.450Z,2.53
2023-05-31T20:07:37.206Z,2.80
2023-05-31T20:10:39.376Z,2.85
2023-05-31T20:13:41.007Z,2.28
2023-05-31T20:16:43.065Z,2.63
2023-05-31T20:19:44.528Z,2.20
2023-05-31T20:22:46.044Z,2.38
2023-05-31T20:25:47.532Z,2.78
2023-05-31T20:28:49.366Z,2.80
2023-05-31T20:31:50.861Z,2.67
2023-05-31T20:34:52.322Z,2.47
2023-05-31T20:37:53.746Z,2.88
2023-05-31T20:40:55.275Z,2.57
2023-05-31T20:43:56.690Z,2.50
2023-05-31T20:46:58.381Z,2.60
2023-05-31T20:49:59.931Z,2.47
2023-05-31T20:53:01.850Z,2.95
2023-05-31T20:56:03.550Z,2.97
2023-05-31T20:59:05.423Z,2.93
2023-05-31T21:02:07.048Z,2.80
2023-05-31T21:05:08.766Z,2.90
2023-05-31T21:08:10.323Z,2.80
2023-05-31T21:11:11.831Z,2.73
2023-05-31T21:14:13.251Z,2.70
2023-05-31T21:17:14.795Z,2.80
2023-05-31T21:20:16.227Z,2.77
2023-05-31T21:23:18.927Z,2.70
2023-05-31T21:26:20.436Z,2.70
2023-05-31T21:29:21.945Z,2.33
2023-05-31T21:32:23.501Z,3.17
2023-05-31T21:35:25.135Z,2.87
2023-05-31T21:38:26.602Z,2.90
2023-05-31T21:41:28.065Z,2.70
2023-05-31T21:44:29.750Z,3.10
2023-05-31T21:47:31.226Z,3.00
2023-05-31T21:50:32.705Z,2.73
2023-05-31T21:53:34.114Z,2.67
2023-05-31T21:56:35.585Z,2.90
2023-05-31T21:59:37.337Z,2.70
2023-05-31T22:02:39.304Z,2.70
2023-05-31T22:05:40.801Z,2.57
2023-05-31T22:08:42.312Z,2.50
2023-05-31T22:11:43.933Z,2.70
2023-05-31T22:14:45.587Z,3.10
2023-05-31T22:17:50.774Z,2.90
2023-05-31T22:20:57.692Z,2.73
2023-05-31T22:23:59.596Z,2.47
2023-05-31T22:27:01.447Z,2.50
2023-05-31T22:30:04.288Z,2.80
2023-05-31T22:33:06.361Z,2.93
2023-05-31T22:36:08.555Z,3.60
2023-05-31T22:39:09.973Z,3.10
2023-05-31T22:42:11.446Z,2.73
2023-05-31T22:45:13.340Z,3.10
2023-05-31T22:48:14.823Z,3.10
2023-05-31T22:51:17.146Z,2.93
2023-05-31T22:54:18.569Z,3.20
2023-05-31T22:57:19.971Z,2.67
2023-05-31T23:00:21.674Z,2.87
2023-05-31T23:03:23.422Z,2.87
2023-05-31T23:06:26.395Z,2.67
2023-05-31T23:09:29.299Z,2.50
2023-05-31T23:12:34.450Z,2.90
2023-05-31T23:15:39.303Z,2.87
2023-05-31T23:18:41.710Z,2.50
2023-05-31T23:21:46.104Z,2.50
2023-05-31T23:24:47.798Z,2.80
2023-05-31T23:27:49.220Z,2.90
2023-05-31T23:30:50.682Z,2.73
2023-05-31T23:33:52.656Z,2.60
2023-05-31T23:36:54.086Z,2.73
2023-05-31T23:39:55.562Z,2.93
2023-05-31T23:42:56.976Z,2.23
2023-05-31T23:45:58.399Z,2.00
2023-05-31T23:48:59.896Z,1.90
2023-05-31T23:52:01.518Z,2.13
2023-05-31T23:55:04.170Z,2.20
2023-05-31T23:58:05.613Z,2.17
